Time;durP1;ratioP1;P1;durP2;ratioP2;P2;SDS_P1;SDS_P2;PMS_P1;PMS_P2;Temp;Humidity;BMP_temperature;BMP_pressure;BME280_temperature;BME280_humidity;BME280_pressure;Samples;Min_cycle;Max_cycle;Signal;HPM_P1;HPM_P2
2023/04/29 00:01:30;;;;;;;45.00;28.20;;;;;;;;;;5072297;28;20036;-65
2023/04/29 00:03:57;;;;;;;45.05;28.70;;;;;;;;;;5074187;28;20499;-65
2023/04/29 00:06:23;;;;;;;46.30;28.48;;;;;;;;;;5081624;28;20045;-65
2023/04/29 00:08:50;;;;;;;48.38;27.85;;;;;;;;;;5072792;28;20046;-65
2023/04/29 00:11:16;;;;;;;45.95;28.75;;;;;;;;;;5072956;28;20056;-65
2023/04/29 00:13:42;;;;;;;49.38;28.73;;;;;;;;;;5072624;28;20422;-65
2023/04/29 00:16:09;;;;;;;49.05;29.00;;;;;;;;;;5072145;28;20037;-65
2023/04/29 00:18:36;;;;;;;51.95;28.27;;;;;;;;;;5081890;28;20123;-65
2023/04/29 00:21:04;;;;;;;46.42;28.88;;;;;;;;;;5080075;28;20052;-65
2023/04/29 00:23:30;;;;;;;52.60;29.05;;;;;;;;;;5072688;28;20040;-65
2023/04/29 00:25:56;;;;;;;52.40;28.83;;;;;;;;;;5069344;28;20044;-65
2023/04/29 00:28:22;;;;;;;47.97;27.52;;;;;;;;;;5059656;28;20041;-65
2023/04/29 00:30:48;;;;;;;44.67;26.60;;;;;;;;;;5065636;28;20072;-65
2023/04/29 00:33:14;;;;;;;43.80;25.38;;;;;;;;;;5081557;28;20036;-65
2023/04/29 00:35:40;;;;;;;41.30;25.58;;;;;;;;;;5072378;28;20111;-65
2023/04/29 00:38:06;;;;;;;41.70;25.85;;;;;;;;;;5072379;28;20036;-65
2023/04/29 00:40:32;;;;;;;44.53;25.58;;;;;;;;;;5071885;28;20036;-65
2023/04/29 00:42:58;;;;;;;46.13;27.40;;;;;;;;;;5046788;28;20040;-64
2023/04/29 00:45:24;;;;;;;44.47;26.63;;;;;;;;;;5072115;28;20494;-65
2023/04/29 00:47:50;;;;;;;48.20;27.17;;;;;;;;;;5080188;28;20127;-65
2023/04/29 00:50:16;;;;;;;43.90;26.63;;;;;;;;;;5079600;28;20048;-65
2023/04/29 00:52:43;;;;;;;48.35;27.13;;;;;;;;;;5071687;28;20048;-64
2023/04/29 00:55:11;;;;;;;48.95;28.95;;;;;;;;;;5072624;28;20068;-65
2023/04/29 00:57:38;;;;;;;46.45;27.38;;;;;;;;;;5070200;28;20043;-65
2023/04/29 01:00:04;;;;;;;51.40;28.33;;;;;;;;;;5071342;28;20104;-65
2023/04/29 01:02:30;;;;;;;49.90;28.75;;;;;;;;;;5071139;28;20089;-65
2023/04/29 01:04:56;;;;;;;52.47;28.90;;;;;;;;;;5077850;28;20032;-65
2023/04/29 01:07:27;;;;;;;54.60;29.73;;;;;;;;;;5076650;28;20040;-65
2023/04/29 01:09:59;;;;;;;51.58;30.42;;;;;;;;;;5067809;28;20075;-65
2023/04/29 01:12:28;;;;;;;53.05;30.02;;;;;;;;;;5068997;28;20044;-65
2023/04/29 01:15:01;;;;;;;49.75;29.45;;;;;;;;;;5070237;28;20516;-65
2023/04/29 01:17:30;;;;;;;52.78;28.77;;;;;;;;;;5070308;28;20510;-65
2023/04/29 01:19:58;;;;;;;54.58;29.30;;;;;;;;;;5088825;28;20438;-65
2023/04/29 01:22:24;;;;;;;56.15;30.67;;;;;;;;;;5071470;28;20162;-65
2023/04/29 01:24:50;;;;;;;56.67;29.88;;;;;;;;;;5068246;28;20075;-64
2023/04/29 01:27:29;;;;;;;56.17;30.02;;;;;;;;;;5065081;28;20543;-65
2023/04/29 01:30:00;;;;;;;54.25;29.00;;;;;;;;;;5074257;28;20139;-65
2023/04/29 01:32:26;;;;;;;;;;;;;;;;;;5085043;28;20486;-65
2023/04/29 01:34:57;;;;;;;48.28;24.38;;;;;;;;;;5071587;28;20034;-65
2023/04/29 01:37:47;;;;;;;53.90;28.17;;;;;;;;;;5070605;28;20033;-65
2023/04/29 01:40:19;;;;;;;53.08;27.15;;;;;;;;;;5054540;28;20072;-65
2023/04/29 01:42:46;;;;;;;60.42;28.65;;;;;;;;;;5067219;28;20049;-65
2023/04/29 01:45:20;;;;;;;54.72;27.38;;;;;;;;;;5087041;28;20074;-65
2023/04/29 01:47:46;;;;;;;53.13;28.73;;;;;;;;;;5071423;28;20119;-65
2023/04/29 01:50:12;;;;;;;49.17;24.92;;;;;;;;;;5070207;28;20121;-65
2023/04/29 01:52:38;;;;;;;55.50;29.50;;;;;;;;;;5070716;28;20078;-65
2023/04/29 01:55:04;;;;;;;57.03;28.58;;;;;;;;;;5071031;28;20059;-65
2023/04/29 01:57:30;;;;;;;57.65;29.48;;;;;;;;;;5071578;28;20047;-65
2023/04/29 01:59:56;;;;;;;54.90;28.08;;;;;;;;;;5078331;28;20401;-65
2023/04/29 02:02:24;;;;;;;52.97;27.45;;;;;;;;;;5077700;28;20051;-65
2023/04/29 02:04:50;;;;;;;53.80;27.35;;;;;;;;;;5058378;28;20044;-65
2023/04/29 02:07:16;;;;;;;54.65;29.67;;;;;;;;;;5068043;28;20057;-65
2023/04/29 02:09:42;;;;;;;47.33;26.73;;;;;;;;;;5062495;28;20052;-65
2023/04/29 02:12:08;;;;;;;55.17;28.77;;;;;;;;;;5072375;28;20093;-65
2023/04/29 02:14:35;;;;;;;52.05;28.27;;;;;;;;;;5081135;28;20036;-66
2023/04/29 02:17:01;;;;;;;54.17;27.77;;;;;;;;;;5070042;28;20453;-65
2023/04/29 02:19:26;;;;;;;55.20;28.27;;;;;;;;;;5068505;28;20032;-65
2023/04/29 02:21:52;;;;;;;58.30;29.15;;;;;;;;;;5070317;28;20029;-65
2023/04/29 02:24:18;;;;;;;60.20;28.88;;;;;;;;;;5070859;28;20047;-65
2023/04/29 02:26:44;;;;;;;55.30;29.48;;;;;;;;;;5070841;28;20047;-66
2023/04/29 02:29:11;;;;;;;51.15;28.13;;;;;;;;;;5060570;28;20486;-65
2023/04/29 02:31:37;;;;;;;56.03;27.10;;;;;;;;;;5087332;28;20044;-65
2023/04/29 02:34:03;;;;;;;50.28;26.98;;;;;;;;;;5070357;28;20040;-65
2023/04/29 02:36:30;;;;;;;56.03;27.95;;;;;;;;;;5073180;28;20036;-65
2023/04/29 02:38:56;;;;;;;60.60;26.92;;;;;;;;;;5075909;28;20162;-65
2023/04/29 02:41:22;;;;;;;53.38;27.23;;;;;;;;;;5070535;28;20068;-66
2023/04/29 02:43:48;;;;;;;64.43;29.95;;;;;;;;;;5070919;28;20033;-65
2023/04/29 02:46:15;;;;;;;61.42;29.08;;;;;;;;;;5091067;28;20036;-65
2023/04/29 02:48:41;;;;;;;61.33;29.48;;;;;;;;;;5074979;28;20052;-65
2023/04/29 02:51:07;;;;;;;62.08;29.73;;;;;;;;;;5079985;22;20131;-62
2023/04/29 02:53:33;;;;;;;64.03;29.08;;;;;;;;;;5050935;28;20600;-62
2023/04/29 02:55:59;;;;;;;55.90;28.63;;;;;;;;;;5050709;28;20059;-62
2023/04/29 02:58:25;;;;;;;55.15;28.48;;;;;;;;;;5050079;28;20425;-62
2023/04/29 03:00:51;;;;;;;56.05;28.67;;;;;;;;;;5049994;28;20170;-63
2023/04/29 03:03:17;;;;;;;56.60;26.38;;;;;;;;;;5066014;28;20032;-62
2023/04/29 03:05:43;;;;;;;52.28;25.35;;;;;;;;;;5051191;28;20033;-62
2023/04/29 03:08:09;;;;;;;51.55;26.13;;;;;;;;;;5050584;28;20394;-62
2023/04/29 03:10:35;;;;;;;45.63;24.58;;;;;;;;;;5044885;28;20042;-62
2023/04/29 03:13:03;;;;;;;42.15;23.75;;;;;;;;;;5057317;28;20037;-62
2023/04/29 03:15:29;;;;;;;44.38;22.50;;;;;;;;;;5054191;28;20044;-62
2023/04/29 03:17:56;;;;;;;41.97;23.20;;;;;;;;;;5050133;28;20041;-62
2023/04/29 03:20:22;;;;;;;38.95;23.77;;;;;;;;;;5058391;28;20115;-63
2023/04/29 03:22:48;;;;;;;41.35;23.05;;;;;;;;;;5062374;28;20048;-62
2023/04/29 03:25:14;;;;;;;38.88;22.02;;;;;;;;;;5054072;28;20105;-62
2023/04/29 03:27:40;;;;;;;45.83;23.83;;;;;;;;;;5054186;28;20124;-62
2023/04/29 03:30:07;;;;;;;45.30;23.25;;;;;;;;;;5052825;28;20091;-62
2023/04/29 03:32:32;;;;;;;46.75;22.42;;;;;;;;;;5048124;28;20056;-62
2023/04/29 03:34:58;;;;;;;41.15;21.38;;;;;;;;;;5051176;28;20498;-62
2023/04/29 03:37:24;;;;;;;41.05;20.48;;;;;;;;;;5059906;28;20469;-62
2023/04/29 03:39:50;;;;;;;40.65;21.10;;;;;;;;;;5066025;28;20070;-63
2023/04/29 03:42:16;;;;;;;42.70;21.83;;;;;;;;;;5059363;28;20033;-62
2023/04/29 03:44:42;;;;;;;38.75;21.20;;;;;;;;;;5052717;28;20048;-62
2023/04/29 03:47:08;;;;;;;33.95;20.10;;;;;;;;;;5053637;28;20065;-62
2023/04/29 03:49:35;;;;;;;39.60;20.80;;;;;;;;;;5053532;28;20041;-62
2023/04/29 03:52:01;;;;;;;39.15;21.65;;;;;;;;;;5053284;28;20037;-62
2023/04/29 03:54:27;;;;;;;39.70;20.40;;;;;;;;;;5052714;28;20049;-62
2023/04/29 03:56:52;;;;;;;38.38;19.33;;;;;;;;;;5051035;28;20052;-62
2023/04/29 03:59:18;;;;;;;38.42;21.05;;;;;;;;;;5058001;28;20037;-62
2023/04/29 04:01:44;;;;;;;40.17;21.13;;;;;;;;;;5050436;28;20040;-62
2023/04/29 04:04:10;;;;;;;39.88;20.25;;;;;;;;;;5048706;28;20037;-62
2023/04/29 04:06:36;;;;;;;41.83;21.50;;;;;;;;;;5050695;28;20032;-62
2023/04/29 04:09:02;;;;;;;39.20;20.20;;;;;;;;;;5055714;28;20123;-62
2023/04/29 04:11:28;;;;;;;40.13;20.33;;;;;;;;;;5052661;28;20044;-62
2023/04/29 04:13:54;;;;;;;37.25;20.25;;;;;;;;;;5052036;28;20037;-62
2023/04/29 04:16:20;;;;;;;39.22;19.58;;;;;;;;;;5055637;28;20037;-62
2023/04/29 04:18:46;;;;;;;38.63;20.23;;;;;;;;;;5053770;28;20048;-61
2023/04/29 04:21:12;;;;;;;35.67;19.23;;;;;;;;;;5053062;28;20033;-62
2023/04/29 04:23:39;;;;;;;36.35;19.17;;;;;;;;;;5051638;28;20415;-61
2023/04/29 04:26:06;;;;;;;40.67;19.20;;;;;;;;;;5044047;28;20044;-62
2023/04/29 04:28:32;;;;;;;38.05;20.25;;;;;;;;;;5052289;28;20043;-62
2023/04/29 04:30:58;;;;;;;34.38;19.42;;;;;;;;;;5052165;28;20120;-61
2023/04/29 04:33:25;;;;;;;39.60;19.95;;;;;;;;;;5049477;28;20167;-61
2023/04/29 04:35:51;;;;;;;35.13;18.73;;;;;;;;;;5062346;28;20056;-62
2023/04/29 04:38:17;;;;;;;31.52;18.58;;;;;;;;;;5058815;28;20044;-61
2023/04/29 04:40:44;;;;;;;35.53;19.20;;;;;;;;;;5051310;28;20040;-62
2023/04/29 04:43:10;;;;;;;37.25;19.35;;;;;;;;;;5051918;28;20041;-61
2023/04/29 04:45:36;;;;;;;38.97;19.90;;;;;;;;;;5049591;28;20055;-62
2023/04/29 04:48:02;;;;;;;38.42;19.15;;;;;;;;;;5061792;28;20067;-62
2023/04/29 04:50:28;;;;;;;38.22;18.42;;;;;;;;;;5056660;28;20045;-62
2023/04/29 04:52:55;;;;;;;34.50;19.33;;;;;;;;;;5047291;28;20073;-62
2023/04/29 04:55:21;;;;;;;39.58;18.90;;;;;;;;;;5055047;28;20045;-62
2023/04/29 04:57:47;;;;;;;35.10;18.58;;;;;;;;;;5050918;28;20041;-61
2023/04/29 05:00:13;;;;;;;37.58;19.75;;;;;;;;;;5051194;28;20029;-61
2023/04/29 05:02:39;;;;;;;38.53;20.02;;;;;;;;;;5047365;28;20040;-61
2023/04/29 05:05:05;;;;;;;37.75;20.52;;;;;;;;;;5063729;28;20033;-62
2023/04/29 05:07:34;;;;;;;39.53;19.85;;;;;;;;;;5072541;28;20071;-62
2023/04/29 05:10:00;;;;;;;38.10;19.92;;;;;;;;;;5053111;28;20053;-62
2023/04/29 05:12:29;;;;;;;36.20;19.40;;;;;;;;;;5051783;28;20402;-62
2023/04/29 05:14:55;;;;;;;38.72;20.20;;;;;;;;;;5056312;28;20056;-62
2023/04/29 05:17:21;;;;;;;39.53;20.90;;;;;;;;;;5059622;28;20517;-62
2023/04/29 05:19:47;;;;;;;39.05;20.17;;;;;;;;;;5054605;28;20033;-62
2023/04/29 05:22:13;;;;;;;37.03;18.77;;;;;;;;;;5054022;28;20367;-61
2023/04/29 05:24:39;;;;;;;34.53;18.20;;;;;;;;;;5061288;28;20124;-62
2023/04/29 05:27:05;;;;;;;36.75;17.85;;;;;;;;;;5051903;28;20179;-62
2023/04/29 05:29:31;;;;;;;36.70;18.73;;;;;;;;;;5051866;28;20036;-61
2023/04/29 05:31:57;;;;;;;32.75;17.33;;;;;;;;;;5050059;28;20487;-62
2023/04/29 05:34:23;;;;;;;33.22;18.25;;;;;;;;;;5051120;28;20041;-62
2023/04/29 05:36:49;;;;;;;33.03;17.17;;;;;;;;;;5051297;28;20033;-62
2023/04/29 05:39:16;;;;;;;40.90;16.08;;;;;;;;;;5058557;28;20037;-62
2023/04/29 05:41:42;;;;;;;29.63;16.60;;;;;;;;;;5067107;28;20048;-61
2023/04/29 05:44:08;;;;;;;32.42;16.05;;;;;;;;;;5042629;28;20033;-61
2023/04/29 05:46:34;;;;;;;31.02;16.98;;;;;;;;;;5053546;28;20106;-61
2023/04/29 05:49:00;;;;;;;30.52;16.13;;;;;;;;;;5053260;28;20078;-61
2023/04/29 05:51:27;;;;;;;32.33;17.15;;;;;;;;;;5067323;28;20036;-61
2023/04/29 05:53:53;;;;;;;31.50;16.90;;;;;;;;;;5052277;28;20040;-61
2023/04/29 05:56:19;;;;;;;28.05;15.07;;;;;;;;;;5063742;28;20443;-61
2023/04/29 05:58:45;;;;;;;29.40;14.73;;;;;;;;;;5066451;28;20048;-61
2023/04/29 06:01:11;;;;;;;28.90;14.27;;;;;;;;;;5052289;28;20067;-61
2023/04/29 06:03:37;;;;;;;29.05;15.55;;;;;;;;;;5050445;28;20040;-61
2023/04/29 06:06:03;;;;;;;24.67;12.98;;;;;;;;;;5052172;28;20049;-61
2023/04/29 06:08:29;;;;;;;26.08;13.55;;;;;;;;;;5058271;28;20093;-61
2023/04/29 06:10:55;;;;;;;27.23;14.18;;;;;;;;;;5049865;28;20123;-61
2023/04/29 06:13:21;;;;;;;29.05;13.70;;;;;;;;;;5050404;28;20116;-61
2023/04/29 06:15:47;;;;;;;33.03;14.48;;;;;;;;;;5049066;28;20182;-61
2023/04/29 06:18:13;;;;;;;30.55;14.45;;;;;;;;;;5051063;28;20200;-61
2023/04/29 06:20:39;;;;;;;26.67;14.02;;;;;;;;;;5048874;28;20043;-62
2023/04/29 06:23:06;;;;;;;28.92;14.82;;;;;;;;;;5046557;28;20045;-62
2023/04/29 06:25:32;;;;;;;26.98;14.75;;;;;;;;;;5061988;28;20052;-62
2023/04/29 06:27:58;;;;;;;25.42;13.80;;;;;;;;;;5050223;28;20037;-62
2023/04/29 06:30:23;;;;;;;31.30;15.30;;;;;;;;;;5049790;28;20037;-61
2023/04/29 06:32:50;;;;;;;30.88;14.55;;;;;;;;;;5050493;28;20414;-61
2023/04/29 06:35:16;;;;;;;31.27;15.30;;;;;;;;;;5062756;28;20132;-62
2023/04/29 06:37:42;;;;;;;27.15;13.98;;;;;;;;;;5057924;28;20097;-61
2023/04/29 06:40:08;;;;;;;24.38;14.45;;;;;;;;;;5049736;28;20037;-62
2023/04/29 06:42:35;;;;;;;27.27;13.95;;;;;;;;;;5049732;28;20487;-62
2023/04/29 06:45:01;;;;;;;25.65;13.90;;;;;;;;;;5049626;28;20049;-61
2023/04/29 06:47:27;;;;;;;26.70;14.50;;;;;;;;;;5050489;28;20120;-62
2023/04/29 06:49:53;;;;;;;23.23;12.20;;;;;;;;;;5051769;28;20082;-62
2023/04/29 06:52:19;;;;;;;28.60;14.30;;;;;;;;;;5059088;28;20041;-61
2023/04/29 06:54:45;;;;;;;26.38;14.75;;;;;;;;;;5048699;28;20037;-61
2023/04/29 06:57:11;;;;;;;22.45;12.82;;;;;;;;;;5052396;28;20045;-62
2023/04/29 06:59:37;;;;;;;25.55;14.25;;;;;;;;;;5053537;28;20518;-62
2023/04/29 07:02:03;;;;;;;23.00;12.15;;;;;;;;;;5053276;28;20048;-61
2023/04/29 07:04:29;;;;;;;22.70;13.18;;;;;;;;;;5053018;28;20028;-62
2023/04/29 07:06:55;;;;;;;23.60;11.98;;;;;;;;;;5054554;28;20037;-61
2023/04/29 07:09:22;;;;;;;20.58;12.25;;;;;;;;;;5052544;28;20044;-62
2023/04/29 07:11:48;;;;;;;21.45;12.25;;;;;;;;;;5071705;28;20047;-61
2023/04/29 07:14:14;;;;;;;26.33;12.95;;;;;;;;;;5061338;28;20420;-62
2023/04/29 07:16:40;;;;;;;22.33;12.68;;;;;;;;;;5063549;28;20032;-62
2023/04/29 07:19:07;;;;;;;23.90;13.73;;;;;;;;;;5053755;28;20044;-62
2023/04/29 07:21:33;;;;;;;21.65;12.18;;;;;;;;;;5054161;28;20037;-62
2023/04/29 07:24:01;;;;;;;23.30;11.73;;;;;;;;;;5054431;28;20033;-61
2023/04/29 07:26:27;;;;;;;24.63;11.52;;;;;;;;;;5072336;28;20572;-62
2023/04/29 07:28:53;;;;;;;17.42;10.70;;;;;;;;;;5053601;28;20083;-62
2023/04/29 07:31:20;;;;;;;20.77;11.10;;;;;;;;;;5054530;28;20406;-62
2023/04/29 07:33:46;;;;;;;21.02;11.30;;;;;;;;;;5065531;28;20044;-62
2023/04/29 07:36:12;;;;;;;20.90;10.90;;;;;;;;;;5073709;28;20044;-62
2023/04/29 07:38:39;;;;;;;20.85;10.55;;;;;;;;;;5060066;28;20041;-62
2023/04/29 07:41:05;;;;;;;19.60;10.27;;;;;;;;;;5053518;28;20475;-62
2023/04/29 07:43:31;;;;;;;15.88;10.05;;;;;;;;;;5072368;28;20118;-62
2023/04/29 07:45:57;;;;;;;18.35;9.80;;;;;;;;;;5061100;28;20483;-62
2023/04/29 07:48:23;;;;;;;22.98;12.27;;;;;;;;;;5052772;28;20040;-62
2023/04/29 07:50:49;;;;;;;19.30;11.07;;;;;;;;;;5053327;28;20049;-62
2023/04/29 07:53:16;;;;;;;20.52;10.40;;;;;;;;;;5056244;28;20044;-62
2023/04/29 07:55:42;;;;;;;21.45;10.63;;;;;;;;;;5057800;28;20119;-62
2023/04/29 07:58:08;;;;;;;17.80;10.05;;;;;;;;;;5053928;28;20129;-62
2023/04/29 08:00:34;;;;;;;18.30;9.60;;;;;;;;;;5051525;28;20045;-63
2023/04/29 08:03:00;;;;;;;18.58;9.73;;;;;;;;;;5053049;28;20066;-62
2023/04/29 08:05:26;;;;;;;17.17;10.80;;;;;;;;;;5052995;28;20076;-62
2023/04/29 08:07:52;;;;;;;18.02;9.38;;;;;;;;;;5053486;28;20041;-62
2023/04/29 08:10:18;;;;;;;18.23;10.15;;;;;;;;;;5057419;28;20036;-62
2023/04/29 08:12:47;;;;;;;16.73;9.27;;;;;;;;;;5053435;28;20041;-62
2023/04/29 08:15:14;;;;;;;18.08;9.50;;;;;;;;;;5053212;28;20056;-62
2023/04/29 08:17:40;;;;;;;18.30;9.55;;;;;;;;;;5052653;28;20410;-62
2023/04/29 08:20:07;;;;;;;16.48;10.02;;;;;;;;;;5049756;28;20029;-61
2023/04/29 08:22:33;;;;;;;16.75;9.43;;;;;;;;;;5049002;28;20045;-62
2023/04/29 08:25:01;;;;;;;15.27;9.85;;;;;;;;;;5067695;28;20132;-62
2023/04/29 08:27:27;;;;;;;17.17;7.82;;;;;;;;;;5055512;28;20047;-62
2023/04/29 08:29:54;;;;;;;16.45;9.27;;;;;;;;;;5052745;28;20037;-62
2023/04/29 08:32:21;;;;;;;16.83;10.27;;;;;;;;;;5051350;28;20041;-62
2023/04/29 08:34:47;;;;;;;19.02;9.32;;;;;;;;;;5051818;28;20048;-62
2023/04/29 08:37:14;;;;;;;17.27;9.85;;;;;;;;;;5053276;28;20090;-61
2023/04/29 08:39:42;;;;;;;12.95;7.75;;;;;;;;;;5066749;28;20486;-61
2023/04/29 08:42:11;;;;;;;14.55;8.68;;;;;;;;;;5058185;28;20037;-61
2023/04/29 08:44:38;;;;;;;17.08;8.55;;;;;;;;;;5051612;28;20395;-62
2023/04/29 08:47:04;;;;;;;16.25;8.48;;;;;;;;;;5051265;28;20037;-61
2023/04/29 08:49:32;;;;;;;19.95;9.48;;;;;;;;;;5052602;28;20492;-62
2023/04/29 08:51:58;;;;;;;16.58;9.52;;;;;;;;;;5075801;22;20075;-66
2023/04/29 08:54:24;;;;;;;14.95;9.73;;;;;;;;;;5081767;28;20036;-65
2023/04/29 08:56:51;;;;;;;16.73;9.70;;;;;;;;;;5079178;28;20044;-65
2023/04/29 08:59:17;;;;;;;14.70;8.80;;;;;;;;;;5059417;28;20084;-65
2023/04/29 09:01:48;;;;;;;15.27;9.13;;;;;;;;;;5051354;28;20171;-65
2023/04/29 09:04:31;;;;;;;17.23;9.07;;;;;;;;;;5070727;28;20044;-65
2023/04/29 09:06:57;;;;;;;12.98;8.93;;;;;;;;;;5059460;28;20319;-65
2023/04/29 09:09:24;;;;;;;16.55;9.43;;;;;;;;;;5070062;28;20047;-65
2023/04/29 09:11:50;;;;;;;13.43;8.65;;;;;;;;;;5086373;28;20124;-65
2023/04/29 09:14:16;;;;;;;13.65;8.30;;;;;;;;;;5071856;28;20052;-65
2023/04/29 09:16:42;;;;;;;12.63;8.45;;;;;;;;;;5068130;28;20053;-65
2023/04/29 09:19:07;;;;;;;11.77;7.88;;;;;;;;;;5058414;28;20041;-65
2023/04/29 09:21:34;;;;;;;12.00;8.38;;;;;;;;;;5063758;28;20039;-65
2023/04/29 09:24:01;;;;;;;14.90;8.38;;;;;;;;;;5069548;28;20520;-65
2023/04/29 09:26:27;;;;;;;14.45;8.18;;;;;;;;;;5077083;28;20440;-65
2023/04/29 09:29:08;;;;;;;15.82;8.52;;;;;;;;;;5079559;28;20066;-65
2023/04/29 09:31:34;;;;;;;13.65;8.30;;;;;;;;;;5069463;28;20072;-64
2023/04/29 09:34:00;;;;;;;13.63;9.13;;;;;;;;;;5082309;28;20050;-64
2023/04/29 09:36:38;;;;;;;15.00;7.85;;;;;;;;;;5067478;28;20401;-64
2023/04/29 09:39:10;;;;;;;10.93;7.55;;;;;;;;;;5078764;28;20499;-65
2023/04/29 09:41:39;;;;;;;11.07;7.70;;;;;;;;;;5081512;28;20044;-65
2023/04/29 09:44:06;;;;;;;10.80;7.43;;;;;;;;;;5038677;28;20048;-64
2023/04/29 09:46:32;;;;;;;13.05;8.18;;;;;;;;;;5068430;28;20033;-65
2023/04/29 09:48:58;;;;;;;11.88;8.13;;;;;;;;;;5068709;28;20037;-65
2023/04/29 09:51:24;;;;;;;14.32;7.90;;;;;;;;;;5030464;28;1024690;-65
2023/04/29 09:53:50;;;;;;;11.55;7.88;;;;;;;;;;5066458;28;20055;-65
2023/04/29 09:56:16;;;;;;;10.80;7.43;;;;;;;;;;5067635;28;20079;-65
2023/04/29 09:58:42;;;;;;;10.88;7.03;;;;;;;;;;5087355;28;20051;-64
2023/04/29 10:01:09;;;;;;;12.00;7.43;;;;;;;;;;5079089;28;20093;-65
2023/04/29 10:03:36;;;;;;;10.93;7.35;;;;;;;;;;5083337;28;20036;-64
2023/04/29 10:06:03;;;;;;;14.13;7.43;;;;;;;;;;5079739;28;20032;-65
2023/04/29 10:08:30;;;;;;;10.90;6.88;;;;;;;;;;5087363;28;20040;-65
2023/04/29 10:11:00;;;;;;;13.43;7.47;;;;;;;;;;5070290;28;20402;-65
2023/04/29 10:13:27;;;;;;;12.23;8.52;;;;;;;;;;5079185;28;20036;-66
2023/04/29 10:16:11;;;;;;;13.07;7.35;;;;;;;;;;5073947;28;20049;-66
2023/04/29 10:18:40;;;;;;;12.55;6.93;;;;;;;;;;5075285;28;20051;-66
2023/04/29 10:21:07;;;;;;;10.77;7.18;;;;;;;;;;5075166;28;20036;-66
2023/04/29 10:23:33;;;;;;;11.00;7.57;;;;;;;;;;5069852;28;20043;-66
2023/04/29 10:26:00;;;;;;;12.07;7.75;;;;;;;;;;5062014;28;20036;-66
2023/04/29 10:28:27;;;;;;;10.35;6.80;;;;;;;;;;5063272;28;20037;-66
2023/04/29 10:30:54;;;;;;;13.18;6.88;;;;;;;;;;5080785;28;20040;-66
2023/04/29 10:33:22;;;;;;;10.75;6.88;;;;;;;;;;5083535;28;20045;-66
2023/04/29 10:35:48;;;;;;;9.38;7.07;;;;;;;;;;5074411;28;20048;-66
2023/04/29 10:38:23;;;;;;;11.00;7.10;;;;;;;;;;5066251;28;20115;-66
2023/04/29 10:40:50;;;;;;;9.57;6.65;;;;;;;;;;5070901;28;20115;-66
2023/04/29 10:43:22;;;;;;;13.88;7.05;;;;;;;;;;5068792;28;20525;-66
2023/04/29 10:45:48;;;;;;;11.80;7.20;;;;;;;;;;5074357;28;20389;-65
2023/04/29 10:48:14;;;;;;;14.27;6.78;;;;;;;;;;5080181;28;20038;-65
2023/04/29 10:50:44;;;;;;;12.57;7.80;;;;;;;;;;5064071;28;20123;-65
2023/04/29 10:53:10;;;;;;;12.07;6.03;;;;;;;;;;5077492;28;20520;-65
2023/04/29 10:55:36;;;;;;;9.95;6.22;;;;;;;;;;5069490;28;20033;-65
2023/04/29 10:58:03;;;;;;;9.93;6.10;;;;;;;;;;5072337;28;20054;-65
2023/04/29 11:00:30;;;;;;;11.48;6.20;;;;;;;;;;5076485;28;20067;-65
2023/04/29 11:02:57;;;;;;;13.00;6.20;;;;;;;;;;5083107;28;20042;-65
2023/04/29 11:05:49;;;;;;;11.80;6.40;;;;;;;;;;5074595;28;20032;-65
2023/04/29 11:08:25;;;;;;;12.05;7.55;;;;;;;;;;5067455;28;20106;-66
2023/04/29 11:11:00;;;;;;;10.95;7.05;;;;;;;;;;5063969;28;20449;-66
2023/04/29 11:13:30;;;;;;;9.88;6.55;;;;;;;;;;5065325;28;20078;-65
2023/04/29 11:16:05;;;;;;;13.25;6.95;;;;;;;;;;5071894;28;21164;-65
2023/04/29 11:18:31;;;;;;;11.43;6.70;;;;;;;;;;5064306;28;20041;-65
2023/04/29 11:21:06;;;;;;;9.98;6.10;;;;;;;;;;5080198;28;20086;-65
2023/04/29 11:23:36;;;;;;;12.15;6.78;;;;;;;;;;5094266;28;20490;-65
2023/04/29 11:26:02;;;;;;;9.07;6.32;;;;;;;;;;5090456;28;20603;-66
2023/04/29 11:28:30;;;;;;;8.93;5.78;;;;;;;;;;5085927;28;20038;-65
2023/04/29 11:30:56;;;;;;;8.57;6.00;;;;;;;;;;5070526;28;20044;-65
2023/04/29 11:33:26;;;;;;;9.10;5.53;;;;;;;;;;5083479;28;20067;-65
2023/04/29 11:35:53;;;;;;;11.00;5.83;;;;;;;;;;5091629;28;20157;-66
2023/04/29 11:38:24;;;;;;;8.95;5.50;;;;;;;;;;5068301;28;20037;-65
2023/04/29 11:40:50;;;;;;;;;;;;;;;;;;5061808;28;20464;-65
2023/04/29 11:43:16;;;;;;;;;;;;;;;;;;5069040;28;19916;-65
2023/04/29 11:45:42;;;;;;;;;;;;;;;;;;5071221;28;19920;-65
2023/04/29 11:48:09;;;;;;;;;;;;;;;;;;5071957;28;20424;-65
2023/04/29 11:50:35;;;;;;;;;;;;;;;;;;5081142;28;20274;-66
2023/04/29 11:53:01;;;;;;;;;;;;;;;;;;5072186;28;19923;-66
2023/04/29 11:55:27;;;;;;;;;;;;;;;;;;5072619;28;19916;-66
2023/04/29 11:57:53;;;;;;;;;;;;;;;;;;5066501;28;19927;-66
2023/04/29 12:00:18;;;;;;;;;;;;;;;;;;5085726;28;20398;-66
2023/04/29 12:02:47;;;;;;;;;;;;;;;;;;5079201;28;19916;-66
2023/04/29 12:05:14;;;;;;;;;;;;;;;;;;5081115;28;20393;-66
2023/04/29 12:07:40;;;;;;;;;;;;;;;;;;5071072;28;20381;-66
2023/04/29 12:10:06;;;;;;;;;;;;;;;;;;5059716;28;19927;-66
2023/04/29 12:12:35;;;;;;;;;;;;;;;;;;5070721;28;20054;-66
2023/04/29 12:15:02;;;;;;;;;;;;;;;;;;5073549;28;19943;-65
2023/04/29 12:17:28;;;;;;;;;;;;;;;;;;5066476;28;19916;-65
2023/04/29 12:19:53;;;;;;;;;;;;;;;;;;5067850;28;20309;-66
2023/04/29 12:22:19;;;;;;;;;;;;;;;;;;5075429;28;19946;-66
2023/04/29 12:24:45;;;;;;;;;;;;;;;;;;5073248;28;19920;-66
2023/04/29 12:27:11;;;;;;;;;;;;;;;;;;5067050;28;19939;-66
2023/04/29 12:29:37;;;;;;;;;;;;;;;;;;5057811;28;19959;-66
2023/04/29 12:32:03;;;;;;;;;;;;;;;;;;5071751;28;19962;-66
2023/04/29 12:34:29;;;;;;;;;;;;;;;;;;5084798;28;19969;-66
2023/04/29 12:36:56;;;;;;;;;;;;;;;;;;5081829;28;19924;-66
2023/04/29 12:39:22;;;;;;;;;;;;;;;;;;5073223;28;20386;-66
2023/04/29 12:41:48;;;;;;;;;;;;;;;;;;5073240;28;19924;-66
2023/04/29 12:44:14;;;;;;;;;;;;;;;;;;5072950;28;19920;-66
2023/04/29 12:46:40;;;;;;;;;;;;;;;;;;5073560;28;19923;-66
2023/04/29 12:49:06;;;;;;;;;;;;;;;;;;5062251;28;19974;-66
2023/04/29 12:51:32;;;;;;;;;;;;;;;;;;5088193;28;19916;-66
2023/04/29 12:53:58;;;;;;;;;;;;;;;;;;5081524;28;19916;-66
2023/04/29 12:56:25;;;;;;;;;;;;;;;;;;5085039;28;20382;-66
2023/04/29 12:58:51;;;;;;;;;;;;;;;;;;5093202;28;19923;-66
2023/04/29 13:01:16;;;;;;;;;;;;;;;;;;5092628;28;19916;-66
2023/04/29 13:03:42;;;;;;;;;;;;;;;;;;5093185;28;19927;-66
2023/04/29 13:06:08;;;;;;;;;;;;;;;;;;5089710;28;19924;-66
2023/04/29 13:08:34;;;;;;;;;;;;;;;;;;5082150;28;19926;-66
2023/04/29 13:11:00;;;;;;;;;;;;;;;;;;5077163;28;19916;-67
2023/04/29 13:13:33;;;;;;;;;;;;;;;;;;5109815;27;19922;-67
2023/04/29 13:15:59;;;;;;;;;;;;;;;;;;5110135;28;20019;-67
2023/04/29 13:18:25;;;;;;;;;;;;;;;;;;5109481;28;19931;-67
2023/04/29 13:20:52;;;;;;;;;;;;;;;;;;5107309;28;19924;-67
2023/04/29 13:23:18;;;;;;;;;;;;;;;;;;5089372;28;20341;-67
2023/04/29 13:25:44;;;;;;;;;;;;;;;;;;5104018;22;20121;-64
2023/04/29 13:28:10;;;;;;;;;;;;;;;;;;5109126;28;19927;-64
2023/04/29 13:30:36;;;;;;;;;;;;;;;;;;5109448;28;19920;-64
2023/04/29 13:33:02;;;;;;;;;;;;;;;;;;5108061;28;19931;-64
2023/04/29 13:35:28;;;;;;;;;;;;;;;;;;5109321;28;19946;-64
2023/04/29 13:37:54;;;;;;;;;;;;;;;;;;5106069;28;19924;-64
2023/04/29 13:40:20;;;;;;;;;;;;;;;;;;5114707;28;19920;-64
2023/04/29 13:42:46;;;;;;;;;;;;;;;;;;5087352;28;19997;-64
2023/04/29 13:45:12;;;;;;;;;;;;;;;;;;5102458;28;19926;-64
2023/04/29 13:47:38;;;;;;;;;;;;;;;;;;5109369;28;20555;-64
2023/04/29 13:50:04;;;;;;;;;;;;;;;;;;5109397;28;19920;-64
2023/04/29 13:52:30;;;;;;;;;;;;;;;;;;5108040;28;19924;-64
2023/04/29 13:54:56;;;;;;;;;;;;;;;;;;5108945;28;19927;-64
2023/04/29 13:57:22;;;;;;;;;;;;;;;;;;5108452;28;20300;-64
2023/04/29 13:59:49;;;;;;;;;;;;;;;;;;5108966;28;19966;-64
2023/04/29 14:02:15;;;;;;;;;;;;;;;;;;5109217;28;19920;-64
2023/04/29 14:04:41;;;;;;;;;;;;;;;;;;5108737;28;19920;-64
2023/04/29 14:07:07;;;;;;;;;;;;;;;;;;5107865;28;19927;-64
2023/04/29 14:09:33;;;;;;;;;;;;;;;;;;5107468;28;19920;-64
2023/04/29 14:11:58;;;;;;;;;;;;;;;;;;5108790;28;19935;-64
2023/04/29 14:14:24;;;;;;;;;;;;;;;;;;5109016;28;19920;-64
2023/04/29 14:16:50;;;;;;;;;;;;;;;;;;5106205;28;19920;-64
2023/04/29 14:19:16;;;;;;;;;;;;;;;;;;5102484;28;20408;-64
2023/04/29 14:21:42;;;;;;;;;;;;;;;;;;5107418;28;20372;-64
2023/04/29 14:24:08;;;;;;;;;;;;;;;;;;5099216;28;19927;-64
2023/04/29 14:26:35;;;;;;;;;;;;;;;;;;5094933;28;20332;-64
2023/04/29 14:29:01;;;;;;;;;;;;;;;;;;5095146;28;20472;-64
2023/04/29 14:31:27;;;;;;;;;;;;;;;;;;5086364;28;20026;-64
2023/04/29 14:33:53;;;;;;;;;;;;;;;;;;5092608;28;19966;-64
2023/04/29 14:36:19;;;;;;;;;;;;;;;;;;5094515;28;19920;-64
2023/04/29 14:38:45;;;;;;;;;;;;;;;;;;5095148;28;20484;-64
2023/04/29 14:41:11;;;;;;;;;;;;;;;;;;5092887;28;20400;-64
2023/04/29 14:43:37;;;;;;;;;;;;;;;;;;5094907;28;19920;-64
2023/04/29 14:46:03;;;;;;;;;;;;;;;;;;5092236;28;20427;-64